sensor_id;sensor_type;location;lat;lon;timestamp;pressure;altitude;pressure_sealevel;temperature;humidity
54262;BME280;40174;52.364;6.452;2023-04-04T00:00:18;102828.53;;;1.13;100.00
54262;BME280;40174;52.364;6.452;2023-04-04T00:02:47;102820.72;;;1.10;100.00
54262;BME280;40174;52.364;6.452;2023-04-04T00:05:14;102809.50;;;1.06;100.00
54262;BME280;40174;52.364;6.452;2023-04-04T00:07:40;102816.47;;;1.02;100.00
54262;BME280;40174;52.364;6.452;2023-04-04T00:10:07;102809.53;;;1.00;100.00
54262;BME280;40174;52.364;6.452;2023-04-04T00:12:35;102814.75;;;0.98;100.00
54262;BME280;40174;52.364;6.452;2023-04-04T00:15:01;102806.09;;;0.96;100.00
54262;BME280;40174;52.364;6.452;2023-04-04T00:17:28;102803.50;;;0.95;100.00
54262;BME280;40174;52.364;6.452;2023-04-04T00:19:54;102809.63;;;0.92;100.00
54262;BME280;40174;52.364;6.452;2023-04-04T00:22:22;102810.47;;;0.90;100.00
54262;BME280;40174;52.364;6.452;2023-04-04T00:24:48;102807.91;;;0.87;100.00
54262;BME280;40174;52.364;6.452;2023-04-04T00:27:15;102805.34;;;0.82;100.00
54262;BME280;40174;52.364;6.452;2023-04-04T00:29:43;102803.66;;;0.76;100.00
54262;BME280;40174;52.364;6.452;2023-04-04T00:32:10;102806.28;;;0.75;100.00
54262;BME280;40174;52.364;6.452;2023-04-04T00:34:37;102801.06;;;0.72;100.00
54262;BME280;40174;52.364;6.452;2023-04-04T00:37:03;102791.56;;;0.69;100.00
54262;BME280;40174;52.364;6.452;2023-04-04T00:39:31;102799.41;;;0.66;100.00
54262;BME280;40174;52.364;6.452;2023-04-04T00:41:58;102793.34;;;0.62;100.00
54262;BME280;40174;52.364;6.452;2023-04-04T00:44:24;102791.66;;;0.58;100.00
54262;BME280;40174;52.364;6.452;2023-04-04T00:46:52;102796.88;;;0.58;100.00
54262;BME280;40174;52.364;6.452;2023-04-04T00:49:19;102795.13;;;0.56;100.00
54262;BME280;40174;52.364;6.452;2023-04-04T00:51:45;102783.88;;;0.52;100.00
54262;BME280;40174;52.364;6.452;2023-04-04T00:54:12;102783.94;;;0.48;100.00
54262;BME280;40174;52.364;6.452;2023-04-04T00:56:38;102785.66;;;0.46;100.00
54262;BME280;40174;52.364;6.452;2023-04-04T00:59:05;102790.88;;;0.46;100.00
54262;BME280;40174;52.364;6.452;2023-04-04T01:01:32;102796.09;;;0.39;100.00
54262;BME280;40174;52.364;6.452;2023-04-04T01:04:00;102793.53;;;0.36;100.00
54262;BME280;40174;52.364;6.452;2023-04-04T01:06:27;102790.94;;;0.35;100.00
54262;BME280;40174;52.364;6.452;2023-04-04T01:08:54;102798.78;;;0.30;100.00
54262;BME280;40174;52.364;6.452;2023-04-04T01:11:21;102801.41;;;0.27;100.00
54262;BME280;40174;52.364;6.452;2023-04-04T01:13:48;102791.88;;;0.23;100.00
54262;BME280;40174;52.364;6.452;2023-04-04T01:16:16;102794.47;;;0.22;100.00
54262;BME280;40174;52.364;6.452;2023-04-04T01:18:43;102796.22;;;0.18;100.00
54262;BME280;40174;52.364;6.452;2023-04-04T01:21:12;102796.25;;;0.15;100.00
54262;BME280;40174;52.364;6.452;2023-04-04T01:23:43;102797.13;;;0.11;100.00
54262;BME280;40174;52.364;6.452;2023-04-04T01:26:15;102794.56;;;0.09;100.00
54262;BME280;40174;52.364;6.452;2023-04-04T01:28:42;102799.75;;;0.08;100.00
54262;BME280;40174;52.364;6.452;2023-04-04T01:31:11;102796.31;;;0.04;100.00
54262;BME280;40174;52.364;6.452;2023-04-04T01:33:42;102790.25;;;0.02;100.00
54262;BME280;40174;52.364;6.452;2023-04-04T01:36:12;102795.47;;;-0.01;100.00
54262;BME280;40174;52.364;6.452;2023-04-04T01:38:44;102791.16;;;-0.04;100.00
54262;BME280;40174;52.364;6.452;2023-04-04T01:41:15;102788.56;;;-0.07;100.00
54262;BME280;40174;52.364;6.452;2023-04-04T01:43:49;102792.03;;;-0.09;100.00
54262;BME280;40174;52.364;6.452;2023-04-04T01:46:17;102783.38;;;-0.08;100.00
54262;BME280;40174;52.364;6.452;2023-04-04T01:48:45;102790.31;;;-0.12;100.00
54262;BME280;40174;52.364;6.452;2023-04-04T01:51:16;102789.47;;;-0.15;100.00
54262;BME280;40174;52.364;6.452;2023-04-04T01:53:42;102786.88;;;-0.15;100.00
54262;BME280;40174;52.364;6.452;2023-04-04T01:56:08;102787.72;;;-0.16;100.00
54262;BME280;40174;52.364;6.452;2023-04-04T01:58:36;102780.81;;;-0.19;100.00
54262;BME280;40174;52.364;6.452;2023-04-04T02:01:03;102785.16;;;-0.21;100.00
54262;BME280;40174;52.364;6.452;2023-04-04T02:03:29;102779.97;;;-0.24;100.00
54262;BME280;40174;52.364;6.452;2023-04-04T02:05:56;102782.59;;;-0.24;100.00
54262;BME280;40174;52.364;6.452;2023-04-04T02:08:22;102787.78;;;-0.26;100.00
54262;BME280;40174;52.364;6.452;2023-04-04T02:10:54;102786.06;;;-0.27;100.00
54262;BME280;40174;52.364;6.452;2023-04-04T02:13:22;102790.41;;;-0.29;100.00
54262;BME280;40174;52.364;6.452;2023-04-04T02:15:50;102789.50;;;-0.28;100.00
54262;BME280;40174;52.364;6.452;2023-04-04T02:18:17;102786.09;;;-0.31;100.00
54262;BME280;40174;52.364;6.452;2023-04-04T02:20:44;102781.72;;;-0.34;100.00
54262;BME280;40174;52.364;6.452;2023-04-04T02:23:10;102784.34;;;-0.35;100.00
54262;BME280;40174;52.364;6.452;2023-04-04T02:25:37;102782.59;;;-0.36;100.00
54262;BME280;40174;52.364;6.452;2023-04-04T02:28:03;102781.78;;;-0.40;100.00
54262;BME280;40174;52.364;6.452;2023-04-04T02:30:29;102784.38;;;-0.42;100.00
54262;BME280;40174;52.364;6.452;2023-04-04T02:32:58;102781.75;;;-0.43;100.00
54262;BME280;40174;52.364;6.452;2023-04-04T02:35:24;102780.03;;;-0.46;100.00
54262;BME280;40174;52.364;6.452;2023-04-04T02:37:51;102780.94;;;-0.48;100.00
54262;BME280;40174;52.364;6.452;2023-04-04T02:40:24;102787.84;;;-0.52;100.00
54262;BME280;40174;52.364;6.452;2023-04-04T02:42:51;102790.47;;;-0.55;100.00
54262;BME280;40174;52.364;6.452;2023-04-04T02:45:19;102797.41;;;-0.57;100.00
54262;BME280;40174;52.364;6.452;2023-04-04T02:48:01;102793.09;;;-0.59;100.00
54262;BME280;40174;52.364;6.452;2023-04-04T02:50:36;102778.34;;;-0.65;100.00
54262;BME280;40174;52.364;6.452;2023-04-04T02:53:03;102779.25;;;-0.65;100.00
54262;BME280;40174;52.364;6.452;2023-04-04T02:55:33;102764.53;;;-0.67;100.00
54262;BME280;40174;52.364;6.452;2023-04-04T02:58:00;102761.94;;;-0.69;100.00
54262;BME280;40174;52.364;6.452;2023-04-04T03:00:26;102764.53;;;-0.70;100.00
54262;BME280;40174;52.364;6.452;2023-04-04T03:02:53;102761.97;;;-0.72;100.00
54262;BME280;40174;52.364;6.452;2023-04-04T03:05:24;102755.00;;;-0.74;100.00
54262;BME280;40174;52.364;6.452;2023-04-04T03:07:52;102756.78;;;-0.78;100.00
54262;BME280;40174;52.364;6.452;2023-04-04T03:10:20;102758.50;;;-0.78;100.00
54262;BME280;40174;52.364;6.452;2023-04-04T03:12:46;102758.50;;;-0.81;100.00
54262;BME280;40174;52.364;6.452;2023-04-04T03:15:13;102743.78;;;-0.84;100.00
54262;BME280;40174;52.364;6.452;2023-04-04T03:17:40;102749.88;;;-0.85;100.00
54262;BME280;40174;52.364;6.452;2023-04-04T03:20:07;102738.59;;;-0.84;100.00
54262;BME280;40174;52.364;6.452;2023-04-04T03:22:35;102737.72;;;-0.86;100.00
54262;BME280;40174;52.364;6.452;2023-04-04T03:25:02;102737.75;;;-0.92;100.00
54262;BME280;40174;52.364;6.452;2023-04-04T03:27:29;102736.03;;;-0.95;100.00
54262;BME280;40174;52.364;6.452;2023-04-04T03:29:56;102735.19;;;-0.98;100.00
54262;BME280;40174;52.364;6.452;2023-04-04T03:32:28;102738.63;;;-0.99;100.00
54262;BME280;40174;52.364;6.452;2023-04-04T03:34:55;102731.72;;;-1.02;100.00
54262;BME280;40174;52.364;6.452;2023-04-04T03:37:21;102733.44;;;-1.04;100.00
54262;BME280;40174;52.364;6.452;2023-04-04T03:39:49;102735.16;;;-1.06;100.00
54262;BME280;40174;52.364;6.452;2023-04-04T03:42:16;102736.94;;;-1.10;100.00
54262;BME280;40174;52.364;6.452;2023-04-04T03:44:42;102735.19;;;-1.09;100.00
54262;BME280;40174;52.364;6.452;2023-04-04T03:47:16;102739.50;;;-1.11;100.00
54262;BME280;40174;52.364;6.452;2023-04-04T03:49:42;102736.06;;;-1.13;100.00
54262;BME280;40174;52.364;6.452;2023-04-04T03:52:10;102732.59;;;-1.17;100.00
54262;BME280;40174;52.364;6.452;2023-04-04T03:54:36;102732.59;;;-1.17;100.00
54262;BME280;40174;52.364;6.452;2023-04-04T03:57:05;102735.19;;;-1.18;100.00
54262;BME280;40174;52.364;6.452;2023-04-04T03:59:31;102735.19;;;-1.21;100.00
54262;BME280;40174;52.364;6.452;2023-04-04T04:01:58;102730.88;;;-1.24;100.00
54262;BME280;40174;52.364;6.452;2023-04-04T04:04:24;102730.00;;;-1.24;100.00
54262;BME280;40174;52.364;6.452;2023-04-04T04:06:51;102740.38;;;-1.24;100.00
54262;BME280;40174;52.364;6.452;2023-04-04T04:09:17;102738.66;;;-1.26;100.00
54262;BME280;40174;52.364;6.452;2023-04-04T04:11:44;102742.97;;;-1.29;100.00
54262;BME280;40174;52.364;6.452;2023-04-04T04:14:11;102742.13;;;-1.30;100.00
54262;BME280;40174;52.364;6.452;2023-04-04T04:16:38;102743.00;;;-1.32;100.00
54262;BME280;40174;52.364;6.452;2023-04-04T04:19:05;102736.94;;;-1.36;100.00
54262;BME280;40174;52.364;6.452;2023-04-04T04:21:37;102736.94;;;-1.39;100.00
54262;BME280;40174;52.364;6.452;2023-04-04T04:24:03;102735.19;;;-1.41;100.00
54262;BME280;40174;52.364;6.452;2023-04-04T04:26:30;102736.06;;;-1.42;100.00
54262;BME280;40174;52.364;6.452;2023-04-04T04:28:57;102731.75;;;-1.43;100.00
54262;BME280;40174;52.364;6.452;2023-04-04T04:31:29;102723.97;;;-1.47;100.00
54262;BME280;40174;52.364;6.452;2023-04-04T04:33:57;102725.69;;;-1.47;100.00
54262;BME280;40174;52.364;6.452;2023-04-04T04:36:27;102711.00;;;-1.50;100.00
54262;BME280;40174;52.364;6.452;2023-04-04T04:39:20;102728.31;;;-1.50;100.00
54262;BME280;40174;52.364;6.452;2023-04-04T04:42:11;102730.88;;;-1.52;100.00
54262;BME280;40174;52.364;6.452;2023-04-04T04:44:45;102732.59;;;-1.54;100.00
54262;BME280;40174;52.364;6.452;2023-04-04T04:47:14;102710.13;;;-1.58;100.00
54262;BME280;40174;52.364;6.452;2023-04-04T04:49:41;102718.78;;;-1.60;100.00
54262;BME280;40174;52.364;6.452;2023-04-04T04:52:09;102728.25;;;-1.64;100.00
54262;BME280;40174;52.364;6.452;2023-04-04T04:54:40;102729.16;;;-1.63;100.00
54262;BME280;40174;52.364;6.452;2023-04-04T04:57:07;102731.72;;;-1.65;100.00
54262;BME280;40174;52.364;6.452;2023-04-04T04:59:39;102734.31;;;-1.67;100.00
54262;BME280;40174;52.364;6.452;2023-04-04T05:02:08;102741.25;;;-1.65;100.00
54262;BME280;40174;52.364;6.452;2023-04-04T05:04:42;102736.94;;;-1.68;100.00
54262;BME280;40174;52.364;6.452;2023-04-04T05:07:10;102752.50;;;-1.68;100.00
54262;BME280;40174;52.364;6.452;2023-04-04T05:09:40;102745.56;;;-1.69;100.00
54262;BME280;40174;52.364;6.452;2023-04-04T05:12:07;102741.25;;;-1.70;100.00
54262;BME280;40174;52.364;6.452;2023-04-04T05:14:40;102735.16;;;-1.71;100.00
54262;BME280;40174;52.364;6.452;2023-04-04T05:17:07;102730.00;;;-1.72;100.00
54262;BME280;40174;52.364;6.452;2023-04-04T05:19:34;102740.34;;;-1.71;100.00
54262;BME280;40174;52.364;6.452;2023-04-04T05:22:02;102734.31;;;-1.71;100.00
54262;BME280;40174;52.364;6.452;2023-04-04T05:24:48;102746.44;;;-1.70;100.00
54262;BME280;40174;52.364;6.452;2023-04-04T05:27:19;102754.22;;;-1.70;100.00
54262;BME280;40174;52.364;6.452;2023-04-04T05:29:55;102747.28;;;-1.70;100.00
54262;BME280;40174;52.364;6.452;2023-04-04T05:32:22;102750.75;;;-1.68;100.00
54262;BME280;40174;52.364;6.452;2023-04-04T05:34:57;102751.63;;;-1.65;100.00
54262;BME280;40174;52.364;6.452;2023-04-04T05:37:25;102746.44;;;-1.62;100.00
54262;BME280;40174;52.364;6.452;2023-04-04T05:39:52;102752.47;;;-1.60;100.00
54262;BME280;40174;52.364;6.452;2023-04-04T05:42:19;102753.34;;;-1.58;100.00
54262;BME280;40174;52.364;6.452;2023-04-04T05:44:49;102763.75;;;-1.52;100.00
54262;BME280;40174;52.364;6.452;2023-04-04T05:47:17;102753.34;;;-1.51;100.00
54262;BME280;40174;52.364;6.452;2023-04-04T05:49:46;102751.63;;;-1.47;100.00
54262;BME280;40174;52.364;6.452;2023-04-04T05:52:13;102760.28;;;-1.42;100.00
54262;BME280;40174;52.364;6.452;2023-04-04T05:54:41;102762.03;;;-1.36;100.00
54262;BME280;40174;52.364;6.452;2023-04-04T05:57:13;102761.16;;;-1.32;100.00
54262;BME280;40174;52.364;6.452;2023-04-04T05:59:43;102755.97;;;-1.29;100.00
54262;BME280;40174;52.364;6.452;2023-04-04T06:02:13;102757.66;;;-1.23;100.00
54262;BME280;40174;52.364;6.452;2023-04-04T06:04:45;102766.34;;;-1.20;100.00
54262;BME280;40174;52.364;6.452;2023-04-04T06:07:16;102765.47;;;-1.14;100.00
54262;BME280;40174;52.364;6.452;2023-04-04T06:09:44;102773.25;;;-1.07;100.00
54262;BME280;40174;52.364;6.452;2023-04-04T06:12:10;102770.66;;;-1.02;100.00
54262;BME280;40174;52.364;6.452;2023-04-04T06:14:38;102769.78;;;-0.98;100.00
54262;BME280;40174;52.364;6.452;2023-04-04T06:17:06;102768.88;;;-0.92;100.00
54262;BME280;40174;52.364;6.452;2023-04-04T06:19:33;102769.75;;;-0.84;100.00
54262;BME280;40174;52.364;6.452;2023-04-04T06:21:59;102775.81;;;-0.77;100.00
54262;BME280;40174;52.364;6.452;2023-04-04T06:24:27;102781.88;;;-0.74;100.00
54262;BME280;40174;52.364;6.452;2023-04-04T06:26:54;102770.59;;;-0.70;100.00
54262;BME280;40174;52.364;6.452;2023-04-04T06:29:24;102768.84;;;-0.63;100.00
54262;BME280;40174;52.364;6.452;2023-04-04T06:31:52;102778.34;;;-0.54;100.00
54262;BME280;40174;52.364;6.452;2023-04-04T06:34:25;102775.72;;;-0.48;100.00
54262;BME280;40174;52.364;6.452;2023-04-04T06:36:57;102780.03;;;-0.39;100.00
54262;BME280;40174;52.364;6.452;2023-04-04T06:39:28;102777.41;;;-0.32;100.00
54262;BME280;40174;52.364;6.452;2023-04-04T06:41:59;102774.75;;;-0.23;100.00
54262;BME280;40174;52.364;6.452;2023-04-04T06:44:28;102776.47;;;-0.18;100.00
54262;BME280;40174;52.364;6.452;2023-04-04T06:46:55;102780.81;;;-0.13;100.00
54262;BME280;40174;52.364;6.452;2023-04-04T06:49:23;102777.28;;;-0.07;100.00
54262;BME280;40174;52.364;6.452;2023-04-04T06:51:49;102785.06;;;-0.01;100.00
54262;BME280;40174;52.364;6.452;2023-04-04T06:54:16;102781.59;;;0.03;100.00
54262;BME280;40174;52.364;6.452;2023-04-04T06:56:45;102784.16;;;0.06;100.00
54262;BME280;40174;52.364;6.452;2023-04-04T06:59:12;102788.50;;;0.07;100.00
54262;BME280;40174;52.364;6.452;2023-04-04T07:01:39;102785.88;;;0.09;100.00
54262;BME280;40174;52.364;6.452;2023-04-04T07:04:05;102782.41;;;0.16;100.00
54262;BME280;40174;52.364;6.452;2023-04-04T07:06:32;102791.00;;;0.26;100.00
54262;BME280;40174;52.364;6.452;2023-04-04T07:08:58;102784.03;;;0.32;100.00
54262;BME280;40174;52.364;6.452;2023-04-04T07:11:25;102789.19;;;0.38;100.00
54262;BME280;40174;52.364;6.452;2023-04-04T07:13:51;102788.28;;;0.47;100.00
54262;BME280;40174;52.364;6.452;2023-04-04T07:16:19;102783.88;;;0.52;100.00
54262;BME280;40174;52.364;6.452;2023-04-04T07:18:45;102788.19;;;0.56;100.00
54262;BME280;40174;52.364;6.452;2023-04-04T07:21:12;102785.56;;;0.58;100.00
54262;BME280;40174;52.364;6.452;2023-04-04T07:23:38;102784.66;;;0.64;100.00
54262;BME280;40174;52.364;6.452;2023-04-04T07:26:05;102783.78;;;0.66;100.00
54262;BME280;40174;52.364;6.452;2023-04-04T07:28:31;102780.25;;;0.72;100.00
54262;BME280;40174;52.364;6.452;2023-04-04T07:30:58;102783.66;;;0.80;100.00
54262;BME280;40174;52.364;6.452;2023-04-04T07:33:27;102774.97;;;0.84;100.00
54262;BME280;40174;52.364;6.452;2023-04-04T07:35:53;102780.97;;;0.89;100.00
54262;BME280;40174;52.364;6.452;2023-04-04T07:38:19;102777.47;;;0.93;100.00
54262;BME280;40174;52.364;6.452;2023-04-04T07:40:47;102774.84;;;0.98;100.00
54262;BME280;40174;52.364;6.452;2023-04-04T07:43:13;102781.78;;;0.99;100.00
54262;BME280;40174;52.364;6.452;2023-04-04T07:45:40;102775.63;;;1.03;100.00
54262;BME280;40174;52.364;6.452;2023-04-04T07:48:06;102777.38;;;1.06;100.00
54262;BME280;40174;52.364;6.452;2023-04-04T07:50:34;102780.81;;;1.08;100.00
54262;BME280;40174;52.364;6.452;2023-04-04T07:53:00;102781.66;;;1.13;100.00
54262;BME280;40174;52.364;6.452;2023-04-04T07:55:26;102775.50;;;1.18;100.00
54262;BME280;40174;52.364;6.452;2023-04-04T07:57:53;102774.59;;;1.24;100.00
54262;BME280;40174;52.364;6.452;2023-04-04T08:00:20;102769.31;;;1.29;100.00
54262;BME280;40174;52.364;6.452;2023-04-04T08:02:50;102774.50;;;1.32;100.00
54262;BME280;40174;52.364;6.452;2023-04-04T08:05:16;102768.38;;;1.34;100.00
54262;BME280;40174;52.364;6.452;2023-04-04T08:07:44;102766.66;;;1.33;100.00
54262;BME280;40174;52.364;6.452;2023-04-04T08:10:11;102762.22;;;1.43;100.00
54262;BME280;40174;52.364;6.452;2023-04-04T08:12:37;102774.28;;;1.50;100.00
54262;BME280;40174;52.364;6.452;2023-04-04T08:15:05;102776.78;;;1.62;100.00
54262;BME280;40174;52.364;6.452;2023-04-04T08:17:31;102775.69;;;1.79;100.00
54262;BME280;40174;52.364;6.452;2023-04-04T08:19:57;102778.25;;;1.83;100.00
54262;BME280;40174;52.364;6.452;2023-04-04T08:22:24;102775.50;;;1.94;100.00
54262;BME280;40174;52.364;6.452;2023-04-04T08:24:52;102774.47;;;2.06;100.00
54262;BME280;40174;52.364;6.452;2023-04-04T08:27:18;102776.91;;;2.20;100.00
54262;BME280;40174;52.364;6.452;2023-04-04T08:29:45;102777.69;;;2.26;100.00
54262;BME280;40174;52.364;6.452;2023-04-04T08:32:12;102770.38;;;2.48;100.00
54262;BME280;40174;52.364;6.452;2023-04-04T08:34:38;102771.56;;;2.82;100.00
54262;BME280;40174;52.364;6.452;2023-04-04T08:37:05;102768.00;;;2.87;100.00
54262;BME280;40174;52.364;6.452;2023-04-04T08:39:32;102771.06;;;3.11;99.79
54262;BME280;40174;52.364;6.452;2023-04-04T08:42:02;102764.63;;;3.29;96.57
54262;BME280;40174;52.364;6.452;2023-04-04T08:44:29;102768.53;;;3.54;94.56
54262;BME280;40174;52.364;6.452;2023-04-04T08:46:57;102768.25;;;3.67;94.82
54262;BME280;40174;52.364;6.452;2023-04-04T08:49:24;102773.16;;;3.84;90.80
54262;BME280;40174;52.364;6.452;2023-04-04T08:51:51;102763.75;;;4.14;90.26
54262;BME280;40174;52.364;6.452;2023-04-04T08:54:19;102774.63;;;4.34;88.36
54262;BME280;40174;52.364;6.452;2023-04-04T08:56:46;102769.00;;;4.51;89.26
54262;BME280;40174;52.364;6.452;2023-04-04T08:59:13;102773.94;;;4.64;87.79
54262;BME280;40174;52.364;6.452;2023-04-04T09:01:42;102764.97;;;4.74;88.46
54262;BME280;40174;52.364;6.452;2023-04-04T09:04:09;102773.34;;;4.88;81.71
54262;BME280;40174;52.364;6.452;2023-04-04T09:06:36;102775.56;;;5.04;78.79
54262;BME280;40174;52.364;6.452;2023-04-04T09:09:02;102760.84;;;5.31;81.36
54262;BME280;40174;52.364;6.452;2023-04-04T09:11:30;102765.13;;;5.35;78.42
54262;BME280;40174;52.364;6.452;2023-04-04T09:13:57;102766.19;;;5.59;79.24
54262;BME280;40174;52.364;6.452;2023-04-04T09:16:25;102767.50;;;5.74;79.96
54262;BME280;40174;52.364;6.452;2023-04-04T09:18:51;102768.88;;;5.87;77.28
54262;BME280;40174;52.364;6.452;2023-04-04T09:21:18;102766.78;;;6.00;74.67
54262;BME280;40174;52.364;6.452;2023-04-04T09:23:44;102765.47;;;6.15;70.55
54262;BME280;40174;52.364;6.452;2023-04-04T09:26:11;102761.91;;;6.44;71.73
54262;BME280;40174;52.364;6.452;2023-04-04T09:28:37;102764.91;;;6.60;68.19
54262;BME280;40174;52.364;6.452;2023-04-04T09:31:05;102759.84;;;6.80;69.23
54262;BME280;40174;52.364;6.452;2023-04-04T09:33:35;102762.69;;;6.99;70.29
54262;BME280;40174;52.364;6.452;2023-04-04T09:36:04;102770.00;;;7.16;67.74
54262;BME280;40174;52.364;6.452;2023-04-04T09:38:31;102759.97;;;7.27;65.67
54262;BME280;40174;52.364;6.452;2023-04-04T09:41:01;102767.91;;;7.51;65.04
54262;BME280;40174;52.364;6.452;2023-04-04T09:43:28;102766.41;;;7.67;64.80
54262;BME280;40174;52.364;6.452;2023-04-04T09:45:55;102763.19;;;7.83;66.62
54262;BME280;40174;52.364;6.452;2023-04-04T09:48:25;102759.38;;;7.91;66.17
54262;BME280;40174;52.364;6.452;2023-04-04T09:50:53;102767.44;;;8.09;67.67
54262;BME280;40174;52.364;6.452;2023-04-04T09:53:19;102764.44;;;8.18;63.45
54262;BME280;40174;52.364;6.452;2023-04-04T09:55:49;102766.22;;;8.41;63.40
54262;BME280;40174;52.364;6.452;2023-04-04T09:58:16;102750.63;;;8.57;63.21
54262;BME280;40174;52.364;6.452;2023-04-04T10:00:45;102760.94;;;8.63;63.82
54262;BME280;40174;52.364;6.452;2023-04-04T10:03:12;102756.13;;;8.73;63.15
54262;BME280;40174;52.364;6.452;2023-04-04T10:05:40;102750.31;;;8.85;64.68
54262;BME280;40174;52.364;6.452;2023-04-04T10:08:14;102756.09;;;8.95;63.04
54262;BME280;40174;52.364;6.452;2023-04-04T10:10:46;102760.50;;;9.15;65.00
54262;BME280;40174;52.364;6.452;2023-04-04T10:13:12;102754.66;;;9.27;63.83
54262;BME280;40174;52.364;6.452;2023-04-04T10:15:40;102750.13;;;9.31;59.96
54262;BME280;40174;52.364;6.452;2023-04-04T10:18:07;102759.25;;;9.43;59.83
54262;BME280;40174;52.364;6.452;2023-04-04T10:20:34;102762.22;;;9.55;59.52
54262;BME280;40174;52.364;6.452;2023-04-04T10:23:01;102759.84;;;9.68;58.73
54262;BME280;40174;52.364;6.452;2023-04-04T10:25:30;102747.31;;;9.73;55.45
54262;BME280;40174;52.364;6.452;2023-04-04T10:27:57;102746.03;;;9.82;57.00
54262;BME280;40174;52.364;6.452;2023-04-04T10:30:24;102749.09;;;9.92;55.42
54262;BME280;40174;52.364;6.452;2023-04-04T10:32:52;102740.50;;;10.06;54.04
54262;BME280;40174;52.364;6.452;2023-04-04T10:35:22;102742.41;;;10.21;54.16
54262;BME280;40174;52.364;6.452;2023-04-04T10:37:51;102735.28;;;10.23;54.93
54262;BME280;40174;52.364;6.452;2023-04-04T10:40:20;102744.78;;;10.27;54.94
54262;BME280;40174;52.364;6.452;2023-04-04T10:42:48;102731.69;;;10.43;57.33
54262;BME280;40174;52.364;6.452;2023-04-04T10:45:16;102730.28;;;10.53;53.83
54262;BME280;40174;52.364;6.452;2023-04-04T10:47:43;102729.13;;;10.59;52.46
54262;BME280;40174;52.364;6.452;2023-04-04T10:50:10;102726.03;;;10.68;52.30
54262;BME280;40174;52.364;6.452;2023-04-04T10:52:37;102730.84;;;10.77;52.36
54262;BME280;40174;52.364;6.452;2023-04-04T10:55:05;102724.53;;;10.97;52.87
54262;BME280;40174;52.364;6.452;2023-04-04T10:57:33;102723.88;;;11.10;52.76
54262;BME280;40174;52.364;6.452;2023-04-04T11:00:03;102724.56;;;11.31;51.20
54262;BME280;40174;52.364;6.452;2023-04-04T11:02:42;102728.75;;;11.35;48.03
54262;BME280;40174;52.364;6.452;2023-04-04T11:05:09;102730.69;;;11.31;47.37
54262;BME280;40174;52.364;6.452;2023-04-04T11:07:36;102726.13;;;11.51;52.04
54262;BME280;40174;52.364;6.452;2023-04-04T11:10:11;102727.44;;;11.59;49.05
54262;BME280;40174;52.364;6.452;2023-04-04T11:12:40;102728.03;;;11.64;46.26
54262;BME280;40174;52.364;6.452;2023-04-04T11:15:10;102728.81;;;11.67;45.41
54262;BME280;40174;52.364;6.452;2023-04-04T11:17:53;102721.69;;;11.83;48.02
54262;BME280;40174;52.364;6.452;2023-04-04T11:20:20;102729.34;;;12.05;48.56
54262;BME280;40174;52.364;6.452;2023-04-04T11:22:56;102722.66;;;12.14;46.87
54262;BME280;40174;52.364;6.452;2023-04-04T11:25:28;102720.84;;;12.30;48.00
54262;BME280;40174;52.364;6.452;2023-04-04T11:27:55;102707.69;;;12.59;48.37
54262;BME280;40174;52.364;6.452;2023-04-04T11:30:24;102711.19;;;12.59;45.54
54262;BME280;40174;52.364;6.452;2023-04-04T11:32:55;102712.66;;;12.79;47.03
54262;BME280;40174;52.364;6.452;2023-04-04T11:35:22;102718.31;;;12.73;44.53
54262;BME280;40174;52.364;6.452;2023-04-04T11:37:58;102706.38;;;12.66;43.74
54262;BME280;40174;52.364;6.452;2023-04-04T11:40:35;102702.53;;;12.86;44.79
54262;BME280;40174;52.364;6.452;2023-04-04T11:43:06;102703.84;;;12.93;45.23
54262;BME280;40174;52.364;6.452;2023-04-04T11:45:35;102695.72;;;13.10;44.31
54262;BME280;40174;52.364;6.452;2023-04-04T11:48:03;102694.03;;;13.24;46.19
54262;BME280;40174;52.364;6.452;2023-04-04T11:50:33;102694.03;;;13.09;40.42
54262;BME280;40174;52.364;6.452;2023-04-04T11:52:59;102694.69;;;13.13;42.66
54262;BME280;40174;52.364;6.452;2023-04-04T11:55:26;102677.81;;;13.14;44.43
54262;BME280;40174;52.364;6.452;2023-04-04T11:57:52;102685.59;;;13.31;44.50
54262;BME280;40174;52.364;6.452;2023-04-04T12:00:28;102681.44;;;13.42;39.48
54262;BME280;40174;52.364;6.452;2023-04-04T12:02:56;102677.84;;;13.28;40.04
54262;BME280;40174;52.364;6.452;2023-04-04T12:05:22;102675.19;;;13.28;40.93
54262;BME280;40174;52.364;6.452;2023-04-04T12:07:49;102670.44;;;13.48;43.12
54262;BME280;40174;52.364;6.452;2023-04-04T12:10:17;102672.19;;;13.62;42.48
54262;BME280;40174;52.364;6.452;2023-04-04T12:12:44;102663.25;;;13.77;40.33
54262;BME280;40174;52.364;6.452;2023-04-04T12:15:12;102660.88;;;13.72;40.12
54262;BME280;40174;52.364;6.452;2023-04-04T12:17:39;102661.72;;;13.73;40.64
54262;BME280;40174;52.364;6.452;2023-04-04T12:20:07;102655.50;;;13.87;41.91
54262;BME280;40174;52.364;6.452;2023-04-04T12:22:34;102648.53;;;13.99;42.30
54262;BME280;40174;52.364;6.452;2023-04-04T12:25:01;102651.03;;;13.87;37.84
54262;BME280;40174;52.364;6.452;2023-04-04T12:27:27;102649.81;;;13.93;39.90
54262;BME280;40174;52.364;6.452;2023-04-04T12:29:54;102650.31;;;14.12;40.54
54262;BME280;40174;52.364;6.452;2023-04-04T12:32:21;102648.50;;;14.26;37.87
54262;BME280;40174;52.364;6.452;2023-04-04T12:34:48;102645.03;;;13.98;35.44
54262;BME280;40174;52.364;6.452;2023-04-04T12:37:15;102648.44;;;14.00;39.25
54262;BME280;40174;52.364;6.452;2023-04-04T12:39:45;102641.31;;;14.01;39.92
54262;BME280;40174;52.364;6.452;2023-04-04T12:42:18;102633.16;;;14.04;37.96
54262;BME280;40174;52.364;6.452;2023-04-04T12:44:45;102632.28;;;14.03;37.35
54262;BME280;40174;52.364;6.452;2023-04-04T12:47:12;102623.72;;;14.12;36.45
54262;BME280;40174;52.364;6.452;2023-04-04T12:49:40;102625.63;;;14.23;38.28
54262;BME280;40174;52.364;6.452;2023-04-04T12:52:15;102625.66;;;14.36;38.69